Time;durP1;ratioP1;P1;durP2;ratioP2;P2;SDS_P1;SDS_P2;PMS_P1;PMS_P2;Temp;Humidity;BMP_temperature;BMP_pressure;BME280_temperature;BME280_humidity;BME280_pressure;Samples;Min_cycle;Max_cycle;Signal;HPM_P1;HPM_P2
2021/04/07 00:00:47;;;;;;;5.60;1.13;;;;;;;;;;5072064;28;20211;-68
2021/04/07 00:03:13;;;;;;;4.73;1.00;;;;;;;;;;5064781;28;20208;-67
2021/04/07 00:05:39;;;;;;;3.07;1.10;;;;;;;;;;5066717;28;20292;-68
2021/04/07 00:08:05;;;;;;;1.90;0.77;;;;;;;;;;5064217;28;20241;-70
2021/04/07 00:10:41;;;;;;;0.80;0.70;;;;;;;;;;5063289;28;20673;-69
2021/04/07 00:13:07;;;;;;;2.70;0.50;;;;;;;;;;5065578;28;20208;-68
2021/04/07 00:15:32;;;;;;;2.37;0.70;;;;;;;;;;5063410;28;20311;-68
2021/04/07 00:17:57;;;;;;;2.57;0.63;;;;;;;;;;5068276;28;20176;-68
2021/04/07 00:20:24;;;;;;;1.30;0.70;;;;;;;;;;5065700;28;20201;-69
2021/04/07 00:22:50;;;;;;;1.80;0.80;;;;;;;;;;5067359;28;20282;-67
2021/04/07 00:25:16;;;;;;;2.73;1.63;;;;;;;;;;5064250;28;20181;-67
2021/04/07 00:27:43;;;;;;;2.60;0.83;;;;;;;;;;5069414;28;20298;-68
2021/04/07 00:30:10;;;;;;;4.10;0.77;;;;;;;;;;5063301;28;20197;-67
2021/04/07 00:32:35;;;;;;;3.87;1.10;;;;;;;;;;5066057;28;20192;-68
2021/04/07 00:35:00;;;;;;;2.57;0.80;;;;;;;;;;5064190;28;20196;-67
2021/04/07 00:37:25;;;;;;;2.67;0.87;;;;;;;;;;5069824;28;20223;-67
2021/04/07 00:39:51;;;;;;;2.90;0.80;;;;;;;;;;5069758;28;20215;-68
2021/04/07 00:42:17;;;;;;;4.27;1.17;;;;;;;;;;5061571;28;20173;-68
2021/04/07 00:44:42;;;;;;;2.67;0.83;;;;;;;;;;5065612;28;20178;-67
2021/04/07 00:47:07;;;;;;;1.73;0.63;;;;;;;;;;5067177;28;20181;-67
2021/04/07 00:49:32;;;;;;;3.17;1.10;;;;;;;;;;5064724;28;20610;-67
2021/04/07 00:51:58;;;;;;;5.97;1.30;;;;;;;;;;5066978;28;20197;-68
2021/04/07 00:54:23;;;;;;;5.80;1.10;;;;;;;;;;5063825;28;20216;-67
2021/04/07 00:56:49;;;;;;;3.20;1.13;;;;;;;;;;5063040;28;20176;-68
2021/04/07 00:59:15;;;;;;;4.10;1.10;;;;;;;;;;5063486;28;20211;-68
2021/04/07 01:01:41;;;;;;;4.60;1.00;;;;;;;;;;5066817;28;20287;-68
2021/04/07 01:04:06;;;;;;;4.73;0.70;;;;;;;;;;5064373;28;20181;-68
2021/04/07 01:06:34;;;;;;;5.77;1.13;;;;;;;;;;5065450;28;20185;-66
2021/04/07 01:08:59;;;;;;;2.53;0.53;;;;;;;;;;5063605;28;20181;-68
2021/04/07 01:11:24;;;;;;;4.73;1.03;;;;;;;;;;5063917;28;20208;-69
2021/04/07 01:13:49;;;;;;;4.57;1.43;;;;;;;;;;5063288;28;21096;-68
2021/04/07 01:16:14;;;;;;;7.40;1.13;;;;;;;;;;5062881;28;20263;-68
2021/04/07 01:18:40;;;;;;;6.10;1.83;;;;;;;;;;5068176;28;20184;-68
2021/04/07 01:21:05;;;;;;;5.93;1.20;;;;;;;;;;5070767;28;20247;-69
2021/04/07 01:23:31;;;;;;;6.20;1.10;;;;;;;;;;5061160;28;20291;-67
2021/04/07 01:25:56;;;;;;;8.40;1.90;;;;;;;;;;5066714;28;20263;-69
2021/04/07 01:28:22;;;;;;;5.97;2.20;;;;;;;;;;5063265;28;20186;-68
2021/04/07 01:30:47;;;;;;;8.33;2.00;;;;;;;;;;5064483;28;20272;-68
2021/04/07 01:33:19;;;;;;;7.20;1.47;;;;;;;;;;5063616;28;20212;-68
2021/04/07 01:35:45;;;;;;;4.67;1.57;;;;;;;;;;5068679;28;20291;-68
2021/04/07 01:38:10;;;;;;;9.87;1.77;;;;;;;;;;5065940;28;20583;-69
2021/04/07 01:40:35;;;;;;;15.60;2.90;;;;;;;;;;5061487;28;20216;-68
2021/04/07 01:43:01;;;;;;;8.20;3.63;;;;;;;;;;5064240;28;20180;-69
2021/04/07 01:45:26;;;;;;;9.87;1.67;;;;;;;;;;5062323;28;21750;-69
2021/04/07 01:47:54;;;;;;;7.30;1.60;;;;;;;;;;5061121;28;20226;-68
2021/04/07 01:50:19;;;;;;;12.07;2.97;;;;;;;;;;5062561;28;20243;-69
2021/04/07 01:52:44;;;;;;;8.40;2.23;;;;;;;;;;5067797;28;20299;-69
2021/04/07 01:55:10;;;;;;;13.63;1.97;;;;;;;;;;5063244;28;20181;-69
2021/04/07 01:57:36;;;;;;;7.80;1.80;;;;;;;;;;5064038;28;20218;-68
2021/04/07 02:00:01;;;;;;;11.03;2.80;;;;;;;;;;5060860;28;20208;-68
2021/04/07 02:02:26;;;;;;;8.67;1.27;;;;;;;;;;5064699;28;20443;-67
2021/04/07 02:04:51;;;;;;;9.90;1.57;;;;;;;;;;5062103;28;20203;-68
2021/04/07 02:07:17;;;;;;;10.93;2.13;;;;;;;;;;5069525;28;20176;-69
2021/04/07 02:09:42;;;;;;;8.07;1.70;;;;;;;;;;5060813;28;20557;-68
2021/04/07 02:12:08;;;;;;;8.83;1.50;;;;;;;;;;5061908;28;20238;-67
2021/04/07 02:14:33;;;;;;;4.67;1.70;;;;;;;;;;5060834;28;20191;-69
2021/04/07 02:17:03;;;;;;;6.00;1.30;;;;;;;;;;5064458;28;20442;-69
2021/04/07 02:19:28;;;;;;;9.13;1.90;;;;;;;;;;5066326;28;20747;-69
2021/04/07 02:22:07;;;;;;;6.37;1.57;;;;;;;;;;5061793;28;21397;-68
2021/04/07 02:24:33;;;;;;;3.97;1.50;;;;;;;;;;5062664;28;20185;-68
2021/04/07 02:27:00;;;;;;;5.77;1.40;;;;;;;;;;5063966;28;20237;-69
2021/04/07 02:29:25;;;;;;;3.70;1.10;;;;;;;;;;5063213;28;20184;-68
2021/04/07 02:31:50;;;;;;;4.47;1.47;;;;;;;;;;5069682;28;20196;-70
2021/04/07 02:34:15;;;;;;;4.73;2.47;;;;;;;;;;5061516;28;20188;-69
2021/04/07 02:36:40;;;;;;;5.90;1.03;;;;;;;;;;5065040;28;20199;-70
2021/04/07 02:39:06;;;;;;;6.17;1.50;;;;;;;;;;5061169;28;20302;-70
2021/04/07 02:41:31;;;;;;;4.63;1.20;;;;;;;;;;5060051;28;20281;-71
2021/04/07 02:43:56;;;;;;;5.87;1.60;;;;;;;;;;5062627;28;20181;-69
2021/04/07 02:46:22;;;;;;;3.27;0.90;;;;;;;;;;5068704;28;20172;-69
2021/04/07 02:48:47;;;;;;;2.70;1.10;;;;;;;;;;5060776;28;20191;-70
2021/04/07 02:51:12;;;;;;;9.87;2.13;;;;;;;;;;5064351;28;20199;-72
2021/04/07 02:53:37;;;;;;;6.57;1.83;;;;;;;;;;5060663;28;20249;-71
2021/04/07 02:56:02;;;;;;;4.77;2.17;;;;;;;;;;5062928;28;20185;-71
2021/04/07 02:58:28;;;;;;;7.80;1.67;;;;;;;;;;5064559;28;20177;-72
2021/04/07 03:00:53;;;;;;;8.87;1.80;;;;;;;;;;5064107;28;20216;-71
2021/04/07 03:03:18;;;;;;;8.53;2.37;;;;;;;;;;5061337;28;20177;-72
2021/04/07 03:05:43;;;;;;;11.37;2.77;;;;;;;;;;5062843;28;20194;-72
2021/04/07 03:08:08;;;;;;;14.07;2.80;;;;;;;;;;5067716;28;20192;-72
2021/04/07 03:10:33;;;;;;;10.57;2.07;;;;;;;;;;5063326;28;20212;-72
2021/04/07 03:12:59;;;;;;;8.17;1.90;;;;;;;;;;5064672;28;20184;-72
2021/04/07 03:15:24;;;;;;;6.90;2.33;;;;;;;;;;5065313;28;20181;-71
2021/04/07 03:17:49;;;;;;;11.67;2.53;;;;;;;;;;5065845;28;20188;-71
2021/04/07 03:20:14;;;;;;;12.63;2.07;;;;;;;;;;5067980;28;20548;-70
2021/04/07 03:22:39;;;;;;;5.37;1.50;;;;;;;;;;5065836;28;20210;-71
2021/04/07 03:25:05;;;;;;;4.90;1.07;;;;;;;;;;5067739;28;20217;-70
2021/04/07 03:27:30;;;;;;;3.70;1.33;;;;;;;;;;5066816;28;20684;-70
2021/04/07 03:29:59;;;;;;;6.33;1.10;;;;;;;;;;5066125;28;20189;-69
2021/04/07 03:32:24;;;;;;;3.53;1.17;;;;;;;;;;5066706;28;20173;-70
2021/04/07 03:34:49;;;;;;;7.13;2.00;;;;;;;;;;5063768;28;21855;-70
2021/04/07 03:37:14;;;;;;;10.37;1.97;;;;;;;;;;5071118;28;20176;-70
2021/04/07 03:39:39;;;;;;;4.77;2.07;;;;;;;;;;5065494;28;20361;-70
2021/04/07 03:42:05;;;;;;;7.70;1.50;;;;;;;;;;5064039;28;20778;-69
2021/04/07 03:44:30;;;;;;;10.30;2.03;;;;;;;;;;5064622;28;20874;-71
2021/04/07 03:46:55;;;;;;;8.73;1.93;;;;;;;;;;5069101;28;20621;-71
2021/04/07 03:49:21;;;;;;;10.10;1.20;;;;;;;;;;5068038;28;20172;-70
2021/04/07 03:51:46;;;;;;;9.73;1.60;;;;;;;;;;5062490;28;22023;-69
2021/04/07 03:54:11;;;;;;;3.33;1.10;;;;;;;;;;5064140;28;20225;-72
2021/04/07 03:56:37;;;;;;;8.50;2.33;;;;;;;;;;5071466;28;20619;-72
2021/04/07 03:59:02;;;;;;;8.07;1.80;;;;;;;;;;5065020;28;20195;-73
2021/04/07 04:01:27;;;;;;;13.37;1.83;;;;;;;;;;5065140;28;20245;-71
2021/04/07 04:03:52;;;;;;;5.43;1.50;;;;;;;;;;5062835;28;20737;-71
2021/04/07 04:06:17;;;;;;;9.30;1.20;;;;;;;;;;5069180;28;20175;-71
2021/04/07 04:08:42;;;;;;;5.10;1.00;;;;;;;;;;5066710;28;20540;-71
2021/04/07 04:11:08;;;;;;;3.17;1.00;;;;;;;;;;5064863;28;20626;-70
2021/04/07 04:13:33;;;;;;;4.13;1.27;;;;;;;;;;5066100;28;20181;-71
2021/04/07 04:15:58;;;;;;;5.87;1.17;;;;;;;;;;5066628;28;20197;-72
2021/04/07 04:18:23;;;;;;;5.40;1.30;;;;;;;;;;5071879;28;20188;-71
2021/04/07 04:20:48;;;;;;;4.63;1.20;;;;;;;;;;5064486;28;20216;-71
2021/04/07 04:23:14;;;;;;;4.93;1.40;;;;;;;;;;5064026;28;20191;-72
2021/04/07 04:25:39;;;;;;;6.03;2.27;;;;;;;;;;5065501;28;20334;-73
2021/04/07 04:28:04;;;;;;;3.83;1.40;;;;;;;;;;5065963;28;20653;-68
2021/04/07 04:30:29;;;;;;;4.63;1.50;;;;;;;;;;5065688;28;20216;-71
2021/04/07 04:32:54;;;;;;;3.40;1.37;;;;;;;;;;5069869;28;20173;-70
2021/04/07 04:35:20;;;;;;;4.97;1.50;;;;;;;;;;5065339;28;20667;-68
2021/04/07 04:37:45;;;;;;;4.60;1.87;;;;;;;;;;5070946;28;20181;-72
2021/04/07 04:40:11;;;;;;;5.90;1.60;;;;;;;;;;5063962;28;20216;-71
2021/04/07 04:42:36;;;;;;;8.70;2.23;;;;;;;;;;5069181;28;20330;-68
2021/04/07 04:45:02;;;;;;;6.60;2.73;;;;;;;;;;5064393;28;20245;-71
2021/04/07 04:47:27;;;;;;;7.93;2.20;;;;;;;;;;5065717;28;20192;-71
2021/04/07 04:49:53;;;;;;;6.90;2.13;;;;;;;;;;5063323;28;20549;-70
2021/04/07 04:52:18;;;;;;;8.10;2.20;;;;;;;;;;5067313;28;20189;-72
2021/04/07 04:54:44;;;;;;;7.77;2.47;;;;;;;;;;5063235;28;20207;-72
2021/04/07 04:57:09;;;;;;;7.97;2.60;;;;;;;;;;5063762;28;20860;-72
2021/04/07 04:59:34;;;;;;;5.87;2.53;;;;;;;;;;5063942;28;20211;-71
2021/04/07 05:01:59;;;;;;;6.97;2.57;;;;;;;;;;5064764;28;20269;-71
2021/04/07 05:04:24;;;;;;;4.57;2.17;;;;;;;;;;5069027;28;20268;-69
2021/04/07 05:06:50;;;;;;;6.53;2.27;;;;;;;;;;5064180;28;21489;-70
2021/04/07 05:09:15;;;;;;;6.07;2.43;;;;;;;;;;5063247;28;20200;-71
2021/04/07 05:11:40;;;;;;;6.57;2.40;;;;;;;;;;5064690;28;20797;-71
2021/04/07 05:14:05;;;;;;;7.77;2.33;;;;;;;;;;5063372;28;20188;-72
2021/04/07 05:16:32;;;;;;;5.40;2.37;;;;;;;;;;5062781;28;20649;-71
2021/04/07 05:18:57;;;;;;;16.20;2.70;;;;;;;;;;5064682;28;20184;-71
2021/04/07 05:21:22;;;;;;;6.27;2.20;;;;;;;;;;5063772;28;20204;-72
2021/04/07 05:23:48;;;;;;;7.50;2.23;;;;;;;;;;5063442;28;20189;-71
2021/04/07 05:26:13;;;;;;;12.50;3.00;;;;;;;;;;5062627;28;20310;-71
2021/04/07 05:28:42;;;;;;;12.50;3.13;;;;;;;;;;5069523;28;20196;-72
2021/04/07 05:31:08;;;;;;;11.00;3.50;;;;;;;;;;5073284;28;20206;-72
2021/04/07 05:33:34;;;;;;;11.90;3.77;;;;;;;;;;5064154;28;20552;-72
2021/04/07 05:36:00;;;;;;;14.80;4.10;;;;;;;;;;5063306;28;20180;-72
2021/04/07 05:38:26;;;;;;;16.73;3.37;;;;;;;;;;5068492;28;20211;-73
2021/04/07 05:40:52;;;;;;;11.70;3.87;;;;;;;;;;5065623;28;20307;-72
2021/04/07 05:43:17;;;;;;;21.17;4.47;;;;;;;;;;5061188;28;21473;-72
2021/04/07 05:45:42;;;;;;;29.90;4.90;;;;;;;;;;5063605;28;20172;-71
2021/04/07 05:48:08;;;;;;;21.07;5.20;;;;;;;;;;5063688;28;20231;-71
2021/04/07 05:50:37;;;;;;;19.47;4.97;;;;;;;;;;5062925;28;20219;-72
2021/04/07 05:53:03;;;;;;;30.70;3.80;;;;;;;;;;5067081;28;20645;-71
2021/04/07 05:55:28;;;;;;;21.03;5.00;;;;;;;;;;5061855;28;20187;-70
2021/04/07 05:57:56;;;;;;;27.30;5.77;;;;;;;;;;5067634;28;20709;-71
2021/04/07 06:00:22;;;;;;;21.93;5.20;;;;;;;;;;5062215;28;20305;-69
2021/04/07 06:02:47;;;;;;;25.13;4.17;;;;;;;;;;5073615;28;20176;-70
2021/04/07 06:05:13;;;;;;;28.10;5.30;;;;;;;;;;5062583;28;20188;-70
2021/04/07 06:07:38;;;;;;;29.93;5.87;;;;;;;;;;5068109;28;20250;-69
2021/04/07 06:10:03;;;;;;;23.53;5.67;;;;;;;;;;5064903;28;20632;-70
2021/04/07 06:12:29;;;;;;;24.23;5.50;;;;;;;;;;5066898;28;20191;-70
2021/04/07 06:14:54;;;;;;;22.33;5.23;;;;;;;;;;5063305;28;20184;-70
2021/04/07 06:17:19;;;;;;;21.03;4.60;;;;;;;;;;5061922;28;20318;-70
2021/04/07 06:19:44;;;;;;;24.37;4.70;;;;;;;;;;5064717;28;20196;-70
2021/04/07 06:22:09;;;;;;;26.43;7.13;;;;;;;;;;5068306;28;20172;-71
2021/04/07 06:24:35;;;;;;;32.50;6.77;;;;;;;;;;5061448;28;20269;-70
2021/04/07 06:27:00;;;;;;;18.10;4.10;;;;;;;;;;5064234;28;20299;-70
2021/04/07 06:29:25;;;;;;;28.63;5.17;;;;;;;;;;5063279;28;20577;-69
2021/04/07 06:31:50;;;;;;;25.27;5.43;;;;;;;;;;5068453;28;20214;-69
2021/04/07 06:34:15;;;;;;;36.17;6.60;;;;;;;;;;5059133;28;20689;-70
2021/04/07 06:36:40;;;;;;;31.70;5.50;;;;;;;;;;5063150;28;20279;-69
2021/04/07 06:39:06;;;;;;;28.27;5.60;;;;;;;;;;5060736;28;20267;-70
2021/04/07 06:41:31;;;;;;;29.07;5.90;;;;;;;;;;5063994;28;20208;-69
2021/04/07 06:43:56;;;;;;;36.23;6.03;;;;;;;;;;5060843;28;20200;-71
2021/04/07 06:46:22;;;;;;;32.47;6.73;;;;;;;;;;5063629;28;22003;-70
2021/04/07 06:48:48;;;;;;;33.70;6.60;;;;;;;;;;5068758;28;20184;-69
2021/04/07 06:51:15;;;;;;;31.13;6.30;;;;;;;;;;5069065;28;20200;-69
2021/04/07 06:53:42;;;;;;;41.07;10.10;;;;;;;;;;5066608;28;20180;-70
2021/04/07 06:56:07;;;;;;;21.17;5.47;;;;;;;;;;5073930;28;20172;-70
2021/04/07 06:58:32;;;;;;;48.67;7.53;;;;;;;;;;5066776;28;20602;-69
2021/04/07 07:00:57;;;;;;;22.70;5.20;;;;;;;;;;5067286;28;20205;-69
2021/04/07 07:03:23;;;;;;;28.17;5.20;;;;;;;;;;5072479;28;20594;-69
2021/04/07 07:05:49;;;;;;;44.30;7.17;;;;;;;;;;5068683;28;20454;-69
2021/04/07 07:08:15;;;;;;;26.97;4.97;;;;;;;;;;5068074;28;20176;-69
2021/04/07 07:10:45;;;;;;;18.63;5.53;;;;;;;;;;5065127;28;20254;-70
2021/04/07 07:13:20;;;;;;;14.80;4.10;;;;;;;;;;5065689;28;20588;-69
2021/04/07 07:15:45;;;;;;;32.77;7.27;;;;;;;;;;5069789;28;20191;-69
2021/04/07 07:18:18;;;;;;;37.23;5.67;;;;;;;;;;5064512;28;20185;-69
2021/04/07 07:20:43;;;;;;;20.83;5.23;;;;;;;;;;5066580;28;20219;-69
2021/04/07 07:23:08;;;;;;;34.20;7.07;;;;;;;;;;5065435;28;20557;-69
2021/04/07 07:25:33;;;;;;;30.00;7.30;;;;;;;;;;5066119;28;20180;-69
2021/04/07 07:28:00;;;;;;;24.53;6.03;;;;;;;;;;5064569;28;20184;-68
2021/04/07 07:30:42;;;;;;;25.10;4.70;;;;;;;;;;5070308;28;20727;-69
2021/04/07 07:33:14;;;;;;;16.77;4.43;;;;;;;;;;5068917;28;20300;-69
2021/04/07 07:35:40;;;;;;;28.37;5.80;;;;;;;;;;5067809;28;21706;-69
2021/04/07 07:38:05;;;;;;;20.20;4.47;;;;;;;;;;5068576;28;20268;-69
2021/04/07 07:40:30;;;;;;;29.50;5.90;;;;;;;;;;5065492;28;20238;-69
2021/04/07 07:42:55;;;;;;;28.87;6.20;;;;;;;;;;5071266;28;20181;-69
2021/04/07 07:45:25;;;;;;;26.23;6.57;;;;;;;;;;5064666;28;20534;-69
2021/04/07 07:48:01;;;;;;;21.67;4.33;;;;;;;;;;5063913;28;20194;-69
2021/04/07 07:50:33;;;;;;;29.47;6.30;;;;;;;;;;5065577;28;20211;-67
2021/04/07 07:52:58;;;;;;;23.17;3.97;;;;;;;;;;5064204;28;20188;-69
2021/04/07 07:55:23;;;;;;;17.87;3.97;;;;;;;;;;5065093;28;20192;-68
2021/04/07 07:57:52;;;;;;;18.87;4.00;;;;;;;;;;5062688;28;20626;-69
2021/04/07 08:00:18;;;;;;;24.63;4.20;;;;;;;;;;5064387;28;20220;-67
2021/04/07 08:02:43;;;;;;;28.23;4.63;;;;;;;;;;5073115;28;20187;-69
2021/04/07 08:05:15;;;;;;;22.27;4.97;;;;;;;;;;5067598;28;20312;-68
2021/04/07 08:07:41;;;;;;;32.00;6.03;;;;;;;;;;5070933;28;20554;-68
2021/04/07 08:10:06;;;;;;;24.33;4.50;;;;;;;;;;5064372;28;20212;-68
2021/04/07 08:12:32;;;;;;;26.93;5.80;;;;;;;;;;5070020;28;20180;-68
2021/04/07 08:14:58;;;;;;;27.13;5.57;;;;;;;;;;5064575;28;20240;-69
2021/04/07 08:17:23;;;;;;;18.63;4.73;;;;;;;;;;5064269;28;20713;-69
2021/04/07 08:19:49;;;;;;;17.83;3.80;;;;;;;;;;5065247;28;20219;-68
2021/04/07 08:22:14;;;;;;;19.33;4.03;;;;;;;;;;5068602;28;20189;-69
2021/04/07 08:24:40;;;;;;;16.57;4.20;;;;;;;;;;5065414;28;20169;-70
2021/04/07 08:27:06;;;;;;;14.70;3.30;;;;;;;;;;5065044;28;20296;-70
2021/04/07 08:29:32;;;;;;;24.93;3.70;;;;;;;;;;5065946;28;20188;-68
2021/04/07 08:31:57;;;;;;;17.17;3.83;;;;;;;;;;5069573;28;21787;-69
2021/04/07 08:34:23;;;;;;;17.77;3.73;;;;;;;;;;5062168;28;20201;-69
2021/04/07 08:36:48;;;;;;;26.23;4.53;;;;;;;;;;5064654;28;20562;-69
2021/04/07 08:39:17;;;;;;;23.20;4.73;;;;;;;;;;5063822;28;20237;-69
2021/04/07 08:41:43;;;;;;;30.03;5.30;;;;;;;;;;5069972;28;20258;-68
2021/04/07 08:44:09;;;;;;;30.53;5.23;;;;;;;;;;5064703;28;20265;-69
2021/04/07 08:46:42;;;;;;;17.57;4.90;;;;;;;;;;5065832;28;20188;-69
2021/04/07 08:49:08;;;;;;;20.23;5.47;;;;;;;;;;5063668;28;20231;-69
2021/04/07 08:51:34;;;;;;;21.80;4.50;;;;;;;;;;5062062;28;20209;-68
2021/04/07 08:54:00;;;;;;;26.10;5.03;;;;;;;;;;5066223;28;20189;-69
2021/04/07 08:56:26;;;;;;;26.30;4.13;;;;;;;;;;5063699;28;20191;-69
2021/04/07 08:58:51;;;;;;;25.27;5.53;;;;;;;;;;5064667;28;20177;-68
2021/04/07 09:01:19;;;;;;;19.40;4.27;;;;;;;;;;5065318;28;20212;-68
2021/04/07 09:03:45;;;;;;;21.03;4.00;;;;;;;;;;5068804;28;20173;-68
2021/04/07 09:06:13;;;;;;;18.93;4.17;;;;;;;;;;5075118;28;20176;-68
2021/04/07 09:08:38;;;;;;;22.23;5.90;;;;;;;;;;5063891;28;20602;-69
2021/04/07 09:11:04;;;;;;;22.90;5.07;;;;;;;;;;5067799;28;20260;-68
2021/04/07 09:13:32;;;;;;;20.03;3.97;;;;;;;;;;5063436;28;20184;-68
2021/04/07 09:16:01;;;;;;;24.20;4.57;;;;;;;;;;5069913;28;20180;-66
2021/04/07 09:18:42;;;;;;;21.57;5.53;;;;;;;;;;5067184;28;20208;-68
2021/04/07 09:21:09;;;;;;;16.47;4.57;;;;;;;;;;5066863;28;20219;-68
2021/04/07 09:23:35;;;;;;;20.27;3.60;;;;;;;;;;5064750;28;20176;-68
2021/04/07 09:26:08;;;;;;;27.03;4.40;;;;;;;;;;5065914;28;20180;-66
2021/04/07 09:28:53;;;;;;;18.83;5.10;;;;;;;;;;5063778;28;20181;-68
2021/04/07 09:31:26;;;;;;;20.10;5.07;;;;;;;;;;5070352;28;20214;-68
2021/04/07 09:33:52;;;;;;;17.13;3.97;;;;;;;;;;5066728;28;20276;-68
2021/04/07 09:36:20;;;;;;;17.50;4.20;;;;;;;;;;5070607;28;20197;-68
2021/04/07 09:38:49;;;;;;;28.20;4.20;;;;;;;;;;5063920;28;20193;-68
2021/04/07 09:41:16;;;;;;;13.60;4.07;;;;;;;;;;5069343;28;20586;-68
2021/04/07 09:43:42;;;;;;;16.13;3.87;;;;;;;;;;5063798;28;20184;-68
2021/04/07 09:46:07;;;;;;;10.63;2.70;;;;;;;;;;5069060;28;20185;-68
2021/04/07 09:48:53;;;;;;;16.77;3.37;;;;;;;;;;5064494;28;20578;-68
2021/04/07 09:51:29;;;;;;;16.03;3.07;;;;;;;;;;5064272;28;20223;-68
2021/04/07 09:54:05;;;;;;;17.17;4.57;;;;;;;;;;5063952;28;20184;-68
2021/04/07 09:56:30;;;;;;;21.23;4.40;;;;;;;;;;5064222;28;20638;-67
2021/04/07 09:58:57;;;;;;;20.50;4.33;;;;;;;;;;5064625;28;20271;-68
2021/04/07 10:01:23;;;;;;;16.30;3.90;;;;;;;;;;5065384;28;20219;-68
2021/04/07 10:03:49;;;;;;;15.07;3.83;;;;;;;;;;5063212;28;20200;-66
2021/04/07 10:06:24;;;;;;;19.83;4.47;;;;;;;;;;5071906;28;20184;-66
2021/04/07 10:09:09;;;;;;;17.93;3.73;;;;;;;;;;5065566;28;20181;-68
2021/04/07 10:11:38;;;;;;;22.93;3.43;;;;;;;;;;5069202;28;20204;-68
2021/04/07 10:14:03;;;;;;;19.97;4.27;;;;;;;;;;5062810;28;20650;-68
2021/04/07 10:16:33;;;;;;;19.77;4.07;;;;;;;;;;5068801;28;20191;-67
2021/04/07 10:18:59;;;;;;;10.37;2.97;;;;;;;;;;5064618;28;20196;-68
2021/04/07 10:21:26;;;;;;;15.17;3.30;;;;;;;;;;5061529;28;20698;-68
2021/04/07 10:23:53;;;;;;;20.50;4.23;;;;;;;;;;5062249;28;20266;-67
2021/04/07 10:26:18;;;;;;;15.13;4.03;;;;;;;;;;5067007;28;20205;-68
2021/04/07 10:29:00;;;;;;;15.07;4.57;;;;;;;;;;5064139;28;20181;-68
2021/04/07 10:31:26;;;;;;;14.90;2.70;;;;;;;;;;5061302;28;20216;-68
2021/04/07 10:34:20;;;;;;;14.33;4.53;;;;;;;;;;5061664;28;20197;-68
2021/04/07 10:36:46;;;;;;;11.77;3.47;;;;;;;;;;5069295;28;20231;-66
2021/04/07 10:39:12;;;;;;;10.00;2.60;;;;;;;;;;5062497;28;20185;-67
2021/04/07 10:41:37;;;;;;;17.40;2.90;;;;;;;;;;5068918;28;20618;-67
2021/04/07 10:44:02;;;;;;;16.27;2.90;;;;;;;;;;5062070;28;20179;-67
2021/04/07 10:46:28;;;;;;;17.97;3.43;;;;;;;;;;5063267;28;20574;-68
2021/04/07 10:48:58;;;;;;;12.97;3.00;;;;;;;;;;5063576;28;20272;-68
2021/04/07 10:51:24;;;;;;;12.70;3.67;;;;;;;;;;5065569;28;20688;-67
2021/04/07 10:53:54;;;;;;;10.93;3.23;;;;;;;;;;5062544;28;20310;-67
2021/04/07 10:56:22;;;;;;;7.77;1.73;;;;;;;;;;5063434;28;20421;-67
2021/04/07 10:59:06;;;;;;;9.73;2.30;;;;;;;;;;5062218;28;20196;-67
2021/04/07 11:01:36;;;;;;;10.93;2.27;;;;;;;;;;5063990;28;20215;-68
2021/04/07 11:04:15;;;;;;;12.20;2.80;;;;;;;;;;5068513;28;20269;-68
2021/04/07 11:06:40;;;;;;;7.73;1.87;;;;;;;;;;5064055;28;20256;-68
2021/04/07 11:09:06;;;;;;;12.73;2.77;;;;;;;;;;5060829;28;20262;-66
2021/04/07 11:11:32;;;;;;;10.47;1.90;;;;;;;;;;5060999;28;20232;-68
2021/04/07 11:13:57;;;;;;;13.67;2.30;;;;;;;;;;5060674;28;20619;-66
2021/04/07 11:16:32;;;;;;;10.73;1.80;;;;;;;;;;5062168;28;20268;-68
2021/04/07 11:18:57;;;;;;;9.63;2.70;;;;;;;;;;5062995;28;20224;-67
2021/04/07 11:21:22;;;;;;;11.80;2.50;;;;;;;;;;5061752;28;22062;-67
2021/04/07 11:23:47;;;;;;;8.40;2.27;;;;;;;;;;5063829;28;20654;-67
2021/04/07 11:26:13;;;;;;;5.63;1.90;;;;;;;;;;5064267;28;20266;-67
2021/04/07 11:28:39;;;;;;;7.83;1.73;;;;;;;;;;5060863;28;20655;-68
2021/04/07 11:31:13;;;;;;;17.53;3.97;;;;;;;;;;5066191;28;20204;-65
2021/04/07 11:33:45;;;;;;;15.80;3.00;;;;;;;;;;5063295;28;20179;-65
2021/04/07 11:39:11;;;;;;;16.33;3.47;;;;;;;;;;5064517;28;20211;-65
2021/04/07 11:41:58;;;;;;;12.63;3.73;;;;;;;;;;5067298;28;20212;-64
2021/04/07 11:44:26;;;;;;;14.30;2.77;;;;;;;;;;5066342;28;20295;-65
2021/04/07 11:46:52;;;;;;;7.37;2.13;;;;;;;;;;5068063;28;20264;-65
2021/04/07 11:49:18;;;;;;;12.97;3.57;;;;;;;;;;5065376;28;20237;-65
2021/04/07 11:51:43;;;;;;;6.87;2.33;;;;;;;;;;5069370;28;20215;-66
2021/04/07 11:54:09;;;;;;;8.10;2.23;;;;;;;;;;5068686;28;20192;-64
2021/04/07 11:56:38;;;;;;;13.63;2.77;;;;;;;;;;5070013;28;20177;-65
2021/04/07 11:59:04;;;;;;;12.50;2.93;;;;;;;;;;5068959;28;20847;-66
2021/04/07 12:01:29;;;;;;;12.83;2.70;;;;;;;;;;5074743;28;20272;-65
2021/04/07 12:03:55;;;;;;;12.77;2.80;;;;;;;;;;5069473;28;20193;-66
2021/04/07 12:06:20;;;;;;;8.70;1.90;;;;;;;;;;5070231;28;20172;-67
2021/04/07 12:08:45;;;;;;;13.63;2.07;;;;;;;;;;5065981;28;20386;-64
2021/04/07 12:11:12;;;;;;;10.83;1.97;;;;;;;;;;5069127;28;20739;-66
2021/04/07 12:13:37;;;;;;;11.67;2.30;;;;;;;;;;5070330;28;20227;-66
2021/04/07 12:16:03;;;;;;;11.40;2.43;;;;;;;;;;5071822;28;20644;-65
2021/04/07 12:18:28;;;;;;;10.33;1.90;;;;;;;;;;5065551;28;20189;-67
2021/04/07 12:20:53;;;;;;;7.77;1.93;;;;;;;;;;5066679;28;20214;-66
2021/04/07 12:23:19;;;;;;;9.27;1.90;;;;;;;;;;5065932;28;20173;-65
2021/04/07 12:25:44;;;;;;;7.90;1.70;;;;;;;;;;5066549;28;20176;-67
2021/04/07 12:28:09;;;;;;;7.13;2.17;;;;;;;;;;5067347;28;20184;-66
2021/04/07 12:30:47;;;;;;;12.83;2.67;;;;;;;;;;5067123;28;20256;-66
2021/04/07 12:33:13;;;;;;;8.83;2.20;;;;;;;;;;5069096;28;20208;-65
2021/04/07 12:35:38;;;;;;;7.03;2.20;;;;;;;;;;5066293;28;20204;-66
2021/04/07 12:38:03;;;;;;;5.17;1.60;;;;;;;;;;5065107;28;20185;-69
2021/04/07 12:40:29;;;;;;;6.27;1.83;;;;;;;;;;5065526;28;20287;-66
2021/04/07 12:42:54;;;;;;;6.83;1.77;;;;;;;;;;5068516;28;20176;-65
2021/04/07 12:45:19;;;;;;;7.33;2.90;;;;;;;;;;5066241;28;20669;-66
2021/04/07 12:47:44;;;;;;;5.50;1.80;;;;;;;;;;5071629;28;20185;-66
2021/04/07 12:50:10;;;;;;;11.13;1.50;;;;;;;;;;5073005;28;20216;-65
2021/04/07 12:52:35;;;;;;;7.97;2.13;;;;;;;;;;5071406;28;20203;-65
2021/04/07 12:55:15;;;;;;;8.67;1.57;;;;;;;;;;5067855;28;20188;-63
2021/04/07 12:57:40;;;;;;;11.40;2.13;;;;;;;;;;5066592;28;20192;-66
2021/04/07 13:00:06;;;;;;;6.00;1.83;;;;;;;;;;5065735;28;20581;-65
2021/04/07 13:02:31;;;;;;;11.83;1.80;;;;;;;;;;5064690;28;20176;-66
2021/04/07 13:04:57;;;;;;;20.93;3.60;;;;;;;;;;5065129;28;20219;-67
2021/04/07 13:07:22;;;;;;;15.17;2.03;;;;;;;;;;5072473;28;20177;-66
2021/04/07 13:09:52;;;;;;;6.47;1.70;;;;;;;;;;5064813;28;20188;-65
2021/04/07 13:12:17;;;;;;;9.87;2.17;;;;;;;;;;5065303;28;20193;-65
2021/04/07 13:14:42;;;;;;;12.03;2.40;;;;;;;;;;5066705;28;20195;-66
2021/04/07 13:17:09;;;;;;;13.13;2.40;;;;;;;;;;5064813;28;20210;-66
2021/04/07 13:19:35;;;;;;;12.87;2.20;;;;;;;;;;5064971;28;20185;-66
2021/04/07 13:22:00;;;;;;;8.17;2.40;;;;;;;;;;5066800;28;20362;-65
2021/04/07 13:24:25;;;;;;;15.13;3.50;;;;;;;;;;5062180;28;20181;-65
2021/04/07 13:26:51;;;;;;;14.30;2.07;;;;;;;;;;5063902;28;20737;-65
2021/04/07 13:29:17;;;;;;;6.50;2.03;;;;;;;;;;5062662;28;20173;-65
2021/04/07 13:31:42;;;;;;;11.67;1.90;;;;;;;;;;5064719;28;20211;-66
2021/04/07 13:34:09;;;;;;;3.77;1.40;;;;;;;;;;5065765;28;20635;-65
2021/04/07 13:36:38;;;;;;;3.90;1.20;;;;;;;;;;5064798;28;20952;-66
2021/04/07 13:39:21;;;;;;;7.67;1.80;;;;;;;;;;5068017;28;20177;-66
2021/04/07 13:44:35;;;;;;;9.23;2.20;;;;;;;;;;5061923;28;20200;-66
2021/04/07 13:47:01;;;;;;;7.07;2.00;;;;;;;;;;5065827;28;20173;-66
2021/04/07 13:49:27;;;;;;;12.23;2.30;;;;;;;;;;5071068;28;20598;-66
2021/04/07 13:51:52;;;;;;;8.70;2.20;;;;;;;;;;5064305;28;20619;-65
2021/04/07 13:54:17;;;;;;;11.70;2.77;;;;;;;;;;5064496;28;20195;-66
2021/04/07 13:56:51;;;;;;;8.77;2.40;;;;;;;;;;5066354;28;20245;-66
2021/04/07 13:59:16;;;;;;;12.00;1.80;;;;;;;;;;5064178;28;20175;-66
2021/04/07 14:01:41;;;;;;;10.50;2.23;;;;;;;;;;5067924;28;20249;-67
2021/04/07 14:04:07;;;;;;;15.20;3.20;;;;;;;;;;5061977;28;20187;-66
2021/04/07 14:06:32;;;;;;;6.77;1.70;;;;;;;;;;5069756;28;20868;-65
2021/04/07 14:08:59;;;;;;;9.20;2.50;;;;;;;;;;5062956;28;20276;-65
2021/04/07 14:11:26;;;;;;;5.33;1.77;;;;;;;;;;5061630;28;20203;-67
2021/04/07 14:13:51;;;;;;;7.87;2.63;;;;;;;;;;5061991;28;20666;-67
2021/04/07 14:16:16;;;;;;;8.53;2.57;;;;;;;;;;5059983;28;20184;-65
2021/04/07 14:18:42;;;;;;;14.67;2.63;;;;;;;;;;5061886;28;20185;-66
2021/04/07 14:21:07;;;;;;;5.17;1.90;;;;;;;;;;5063448;28;20216;-65
2021/04/07 14:23:32;;;;;;;8.90;2.60;;;;;;;;;;5067379;28;20187;-67
2021/04/07 14:25:59;;;;;;;9.43;1.77;;;;;;;;;;5061179;28;20180;-65
2021/04/07 14:28:24;;;;;;;12.43;2.27;;;;;;;;;;5064692;28;20192;-65
2021/04/07 14:30:49;;;;;;;10.43;3.20;;;;;;;;;;5065935;28;20681;-67
2021/04/07 14:33:18;;;;;;;8.37;2.47;;;;;;;;;;5066144;28;20183;-66
2021/04/07 14:35:44;;;;;;;11.40;2.63;;;;;;;;;;5066567;28;20588;-66
2021/04/07 14:38:10;;;;;;;11.70;2.27;;;;;;;;;;5068365;28;20184;-65